sensor_id;sensor_type;location;lat;lon;timestamp;P1;durP1;ratioP1;P2;durP2;ratioP2
1831;SDS011;1680;48.106;11.708;2023-04-03T00:02:18;8.80;;;6.97;;
1831;SDS011;1680;48.106;11.708;2023-04-03T00:04:45;7.75;;;7.00;;
1831;SDS011;1680;48.106;11.708;2023-04-03T00:07:12;7.45;;;6.75;;
1831;SDS011;1680;48.106;11.708;2023-04-03T00:09:40;7.97;;;7.18;;
1831;SDS011;1680;48.106;11.708;2023-04-03T00:12:07;8.02;;;7.22;;
1831;SDS011;1680;48.106;11.708;2023-04-03T00:14:37;7.23;;;6.60;;
1831;SDS011;1680;48.106;11.708;2023-04-03T00:17:04;7.85;;;7.15;;
1831;SDS011;1680;48.106;11.708;2023-04-03T00:19:31;8.07;;;7.27;;
1831;SDS011;1680;48.106;11.708;2023-04-03T00:21:59;7.67;;;7.07;;
1831;SDS011;1680;48.106;11.708;2023-04-03T00:24:26;7.97;;;7.28;;
1831;SDS011;1680;48.106;11.708;2023-04-03T00:26:54;7.50;;;6.80;;
1831;SDS011;1680;48.106;11.708;2023-04-03T00:29:21;10.40;;;7.25;;
1831;SDS011;1680;48.106;11.708;2023-04-03T00:31:50;7.75;;;6.72;;
1831;SDS011;1680;48.106;11.708;2023-04-03T00:34:17;6.68;;;6.07;;
1831;SDS011;1680;48.106;11.708;2023-04-03T00:36:44;7.60;;;6.80;;
1831;SDS011;1680;48.106;11.708;2023-04-03T00:39:12;8.13;;;7.00;;
1831;SDS011;1680;48.106;11.708;2023-04-03T00:41:39;6.65;;;6.05;;
1831;SDS011;1680;48.106;11.708;2023-04-03T00:44:20;6.88;;;6.28;;
1831;SDS011;1680;48.106;11.708;2023-04-03T00:46:49;7.13;;;6.43;;
1831;SDS011;1680;48.106;11.708;2023-04-03T00:49:17;7.10;;;6.40;;
1831;SDS011;1680;48.106;11.708;2023-04-03T00:51:44;8.30;;;6.97;;
1831;SDS011;1680;48.106;11.708;2023-04-03T00:54:12;7.85;;;6.50;;
1831;SDS011;1680;48.106;11.708;2023-04-03T00:56:39;6.88;;;6.28;;
1831;SDS011;1680;48.106;11.708;2023-04-03T00:59:08;8.95;;;7.70;;
1831;SDS011;1680;48.106;11.708;2023-04-03T01:01:38;7.25;;;6.55;;
1831;SDS011;1680;48.106;11.708;2023-04-03T01:06:57;7.10;;;6.50;;
1831;SDS011;1680;48.106;11.708;2023-04-03T01:09:28;8.02;;;7.22;;
1831;SDS011;1680;48.106;11.708;2023-04-03T01:14:42;7.20;;;6.50;;
1831;SDS011;1680;48.106;11.708;2023-04-03T01:17:26;7.63;;;6.90;;
1831;SDS011;1680;48.106;11.708;2023-04-03T01:20:03;7.80;;;6.97;;
1831;SDS011;1680;48.106;11.708;2023-04-03T01:23:06;6.37;;;5.77;;
1831;SDS011;1680;48.106;11.708;2023-04-03T01:25:49;6.67;;;6.00;;
1831;SDS011;1680;48.106;11.708;2023-04-03T01:28:18;6.78;;;6.20;;
1831;SDS011;1680;48.106;11.708;2023-04-03T01:30:48;6.97;;;6.28;;
1831;SDS011;1680;48.106;11.708;2023-04-03T01:33:21;7.20;;;6.53;;
1831;SDS011;1680;48.106;11.708;2023-04-03T01:35:49;7.68;;;6.90;;
1831;SDS011;1680;48.106;11.708;2023-04-03T01:38:16;8.00;;;7.20;;
1831;SDS011;1680;48.106;11.708;2023-04-03T01:40:43;9.50;;;6.18;;
1831;SDS011;1680;48.106;11.708;2023-04-03T01:43:11;7.38;;;6.70;;
1831;SDS011;1680;48.106;11.708;2023-04-03T01:45:38;7.53;;;6.82;;
1831;SDS011;1680;48.106;11.708;2023-04-03T01:48:05;9.20;;;6.88;;
1831;SDS011;1680;48.106;11.708;2023-04-03T01:50:34;6.50;;;5.90;;
1831;SDS011;1680;48.106;11.708;2023-04-03T01:53:02;6.70;;;6.10;;
1831;SDS011;1680;48.106;11.708;2023-04-03T01:55:29;8.03;;;7.23;;
1831;SDS011;1680;48.106;11.708;2023-04-03T01:57:56;6.63;;;6.03;;
1831;SDS011;1680;48.106;11.708;2023-04-03T02:00:23;6.70;;;6.10;;
1831;SDS011;1680;48.106;11.708;2023-04-03T02:02:51;6.88;;;5.93;;
1831;SDS011;1680;48.106;11.708;2023-04-03T02:05:19;7.67;;;6.97;;
1831;SDS011;1680;48.106;11.708;2023-04-03T02:07:47;6.70;;;6.10;;
1831;SDS011;1680;48.106;11.708;2023-04-03T02:10:15;7.10;;;6.40;;
1831;SDS011;1680;48.106;11.708;2023-04-03T02:12:42;7.03;;;6.43;;
1831;SDS011;1680;48.106;11.708;2023-04-03T02:15:10;6.85;;;6.25;;
1831;SDS011;1680;48.106;11.708;2023-04-03T02:17:37;7.43;;;6.45;;
1831;SDS011;1680;48.106;11.708;2023-04-03T02:20:05;6.93;;;6.22;;
1831;SDS011;1680;48.106;11.708;2023-04-03T02:22:33;6.55;;;5.95;;
1831;SDS011;1680;48.106;11.708;2023-04-03T02:25:02;6.55;;;5.95;;
1831;SDS011;1680;48.106;11.708;2023-04-03T02:27:30;7.43;;;6.28;;
1831;SDS011;1680;48.106;11.708;2023-04-03T02:29:57;6.70;;;6.10;;
1831;SDS011;1680;48.106;11.708;2023-04-03T02:32:25;6.20;;;5.70;;
1831;SDS011;1680;48.106;11.708;2023-04-03T02:34:52;7.38;;;6.07;;
1831;SDS011;1680;48.106;11.708;2023-04-03T02:37:19;7.30;;;6.57;;
1831;SDS011;1680;48.106;11.708;2023-04-03T02:39:47;6.53;;;5.95;;
1831;SDS011;1680;48.106;11.708;2023-04-03T02:42:15;6.43;;;5.78;;
1831;SDS011;1680;48.106;11.708;2023-04-03T02:44:43;6.22;;;5.72;;
1831;SDS011;1680;48.106;11.708;2023-04-03T02:47:10;6.30;;;5.80;;
1831;SDS011;1680;48.106;11.708;2023-04-03T02:49:37;6.18;;;5.57;;
1831;SDS011;1680;48.106;11.708;2023-04-03T02:52:04;5.90;;;5.30;;
1831;SDS011;1680;48.106;11.708;2023-04-03T02:54:32;6.70;;;6.10;;
1831;SDS011;1680;48.106;11.708;2023-04-03T02:57:02;6.40;;;5.80;;
1831;SDS011;1680;48.106;11.708;2023-04-03T02:59:31;6.70;;;6.10;;
1831;SDS011;1680;48.106;11.708;2023-04-03T03:01:58;6.97;;;6.30;;
1831;SDS011;1680;48.106;11.708;2023-04-03T03:04:25;6.35;;;4.90;;
1831;SDS011;1680;48.106;11.708;2023-04-03T03:06:53;5.60;;;5.10;;
1831;SDS011;1680;48.106;11.708;2023-04-03T03:09:20;6.07;;;5.00;;
1831;SDS011;1680;48.106;11.708;2023-04-03T03:11:48;5.45;;;5.00;;
1831;SDS011;1680;48.106;11.708;2023-04-03T03:14:15;4.57;;;4.17;;
1831;SDS011;1680;48.106;11.708;2023-04-03T03:16:44;5.05;;;4.65;;
1831;SDS011;1680;48.106;11.708;2023-04-03T03:19:11;5.10;;;4.60;;
1831;SDS011;1680;48.106;11.708;2023-04-03T03:21:38;5.38;;;4.88;;
1831;SDS011;1680;48.106;11.708;2023-04-03T03:24:06;5.05;;;4.65;;
1831;SDS011;1680;48.106;11.708;2023-04-03T03:26:33;4.75;;;4.30;;
1831;SDS011;1680;48.106;11.708;2023-04-03T03:29:01;4.90;;;4.43;;
1831;SDS011;1680;48.106;11.708;2023-04-03T03:31:28;4.57;;;4.18;;
1831;SDS011;1680;48.106;11.708;2023-04-03T03:33:57;4.43;;;4.03;;
1831;SDS011;1680;48.106;11.708;2023-04-03T03:36:24;6.35;;;4.28;;
1831;SDS011;1680;48.106;11.708;2023-04-03T03:38:52;5.20;;;4.70;;
1831;SDS011;1680;48.106;11.708;2023-04-03T03:41:19;5.10;;;4.32;;
1831;SDS011;1680;48.106;11.708;2023-04-03T03:43:46;5.10;;;4.20;;
1831;SDS011;1680;48.106;11.708;2023-04-03T03:46:13;5.00;;;4.50;;
1831;SDS011;1680;48.106;11.708;2023-04-03T03:48:41;4.63;;;4.05;;
1831;SDS011;1680;48.106;11.708;2023-04-03T03:51:09;4.78;;;4.38;;
1831;SDS011;1680;48.106;11.708;2023-04-03T03:53:37;5.70;;;4.33;;
1831;SDS011;1680;48.106;11.708;2023-04-03T03:56:04;4.10;;;3.80;;
1831;SDS011;1680;48.106;11.708;2023-04-03T03:58:31;4.28;;;3.92;;
1831;SDS011;1680;48.106;11.708;2023-04-03T04:01:00;4.68;;;4.28;;
1831;SDS011;1680;48.106;11.708;2023-04-03T04:03:28;4.57;;;4.18;;
1831;SDS011;1680;48.106;11.708;2023-04-03T04:05:55;4.33;;;3.90;;
1831;SDS011;1680;48.106;11.708;2023-04-03T04:08:24;4.93;;;4.53;;
1831;SDS011;1680;48.106;11.708;2023-04-03T04:10:51;4.63;;;4.22;;
1831;SDS011;1680;48.106;11.708;2023-04-03T04:13:18;6.30;;;4.53;;
1831;SDS011;1680;48.106;11.708;2023-04-03T04:15:46;4.80;;;4.30;;
1831;SDS011;1680;48.106;11.708;2023-04-03T04:18:13;3.80;;;3.47;;
1831;SDS011;1680;48.106;11.708;2023-04-03T04:20:40;4.23;;;3.93;;
1831;SDS011;1680;48.106;11.708;2023-04-03T04:23:08;4.63;;;4.23;;
1831;SDS011;1680;48.106;11.708;2023-04-03T04:25:36;4.78;;;4.35;;
1831;SDS011;1680;48.106;11.708;2023-04-03T04:28:04;4.70;;;4.30;;
1831;SDS011;1680;48.106;11.708;2023-04-03T04:30:31;4.53;;;4.13;;
1831;SDS011;1680;48.106;11.708;2023-04-03T04:32:58;4.47;;;4.07;;
1831;SDS011;1680;48.106;11.708;2023-04-03T04:35:26;4.65;;;4.25;;
1831;SDS011;1680;48.106;11.708;2023-04-03T04:37:53;4.80;;;4.40;;
1831;SDS011;1680;48.106;11.708;2023-04-03T04:40:20;4.65;;;4.20;;
1831;SDS011;1680;48.106;11.708;2023-04-03T04:42:49;4.60;;;4.18;;
1831;SDS011;1680;48.106;11.708;2023-04-03T04:45:16;5.00;;;4.53;;
1831;SDS011;1680;48.106;11.708;2023-04-03T04:47:44;5.10;;;4.37;;
1831;SDS011;1680;48.106;11.708;2023-04-03T04:50:12;4.60;;;4.20;;
1831;SDS011;1680;48.106;11.708;2023-04-03T04:52:40;4.68;;;4.28;;
1831;SDS011;1680;48.106;11.708;2023-04-03T04:55:07;4.70;;;4.30;;
1831;SDS011;1680;48.106;11.708;2023-04-03T04:57:34;5.17;;;3.90;;
1831;SDS011;1680;48.106;11.708;2023-04-03T05:00:08;4.70;;;4.30;;
1831;SDS011;1680;48.106;11.708;2023-04-03T05:02:36;4.63;;;4.20;;
1831;SDS011;1680;48.106;11.708;2023-04-03T05:05:03;4.20;;;3.90;;
1831;SDS011;1680;48.106;11.708;2023-04-03T05:07:31;4.70;;;4.30;;
1831;SDS011;1680;48.106;11.708;2023-04-03T05:09:58;4.97;;;4.50;;
1831;SDS011;1680;48.106;11.708;2023-04-03T05:12:25;7.13;;;4.80;;
1831;SDS011;1680;48.106;11.708;2023-04-03T05:14:52;4.95;;;4.50;;
1831;SDS011;1680;48.106;11.708;2023-04-03T05:17:21;5.25;;;4.75;;
1831;SDS011;1680;48.106;11.708;2023-04-03T05:19:48;4.47;;;4.00;;
1831;SDS011;1680;48.106;11.708;2023-04-03T05:22:15;4.70;;;4.30;;
1831;SDS011;1680;48.106;11.708;2023-04-03T05:24:43;4.88;;;4.43;;
1831;SDS011;1680;48.106;11.708;2023-04-03T05:27:10;5.13;;;4.70;;
1831;SDS011;1680;48.106;11.708;2023-04-03T05:29:37;4.47;;;3.85;;
1831;SDS011;1680;48.106;11.708;2023-04-03T05:32:04;4.20;;;3.90;;
1831;SDS011;1680;48.106;11.708;2023-04-03T05:34:33;4.13;;;3.80;;
1831;SDS011;1680;48.106;11.708;2023-04-03T05:37:00;4.40;;;4.00;;
1831;SDS011;1680;48.106;11.708;2023-04-03T05:39:29;4.40;;;4.00;;
1831;SDS011;1680;48.106;11.708;2023-04-03T05:41:57;4.50;;;4.10;;
1831;SDS011;1680;48.106;11.708;2023-04-03T05:44:24;4.45;;;4.05;;
1831;SDS011;1680;48.106;11.708;2023-04-03T05:46:51;6.45;;;4.40;;
1831;SDS011;1680;48.106;11.708;2023-04-03T05:49:18;4.07;;;3.77;;
1831;SDS011;1680;48.106;11.708;2023-04-03T05:51:47;4.00;;;3.67;;
1831;SDS011;1680;48.106;11.708;2023-04-03T05:54:16;4.95;;;4.50;;
1831;SDS011;1680;48.106;11.708;2023-04-03T05:56:46;4.28;;;3.97;;
1831;SDS011;1680;48.106;11.708;2023-04-03T05:59:13;4.28;;;3.88;;
1831;SDS011;1680;48.106;11.708;2023-04-03T06:01:40;4.83;;;4.07;;
1831;SDS011;1680;48.106;11.708;2023-04-03T06:04:07;4.30;;;3.90;;
1831;SDS011;1680;48.106;11.708;2023-04-03T06:06:44;3.88;;;3.58;;
1831;SDS011;1680;48.106;11.708;2023-04-03T06:09:15;4.65;;;4.25;;
1831;SDS011;1680;48.106;11.708;2023-04-03T06:11:43;4.50;;;4.10;;
1831;SDS011;1680;48.106;11.708;2023-04-03T06:14:11;4.75;;;4.20;;
1831;SDS011;1680;48.106;11.708;2023-04-03T06:16:38;4.40;;;4.00;;
1831;SDS011;1680;48.106;11.708;2023-04-03T06:19:06;4.50;;;4.10;;
1831;SDS011;1680;48.106;11.708;2023-04-03T06:21:33;4.97;;;4.45;;
1831;SDS011;1680;48.106;11.708;2023-04-03T06:24:02;4.05;;;3.63;;
1831;SDS011;1680;48.106;11.708;2023-04-03T06:26:30;4.47;;;4.07;;
1831;SDS011;1680;48.106;11.708;2023-04-03T06:28:58;5.18;;;4.68;;
1831;SDS011;1680;48.106;11.708;2023-04-03T06:31:27;4.22;;;3.83;;
1831;SDS011;1680;48.106;11.708;2023-04-03T06:33:54;3.95;;;3.65;;
1831;SDS011;1680;48.106;11.708;2023-04-03T06:36:22;4.32;;;3.72;;
1831;SDS011;1680;48.106;11.708;2023-04-03T06:38:49;5.18;;;4.07;;
1831;SDS011;1680;48.106;11.708;2023-04-03T06:41:18;3.95;;;3.65;;
1831;SDS011;1680;48.106;11.708;2023-04-03T06:43:46;4.60;;;3.70;;
1831;SDS011;1680;48.106;11.708;2023-04-03T06:46:14;3.85;;;3.53;;
1831;SDS011;1680;48.106;11.708;2023-04-03T06:48:43;4.32;;;3.92;;
1831;SDS011;1680;48.106;11.708;2023-04-03T06:51:14;4.20;;;3.80;;
1831;SDS011;1680;48.106;11.708;2023-04-03T06:53:47;4.60;;;4.20;;
1831;SDS011;1680;48.106;11.708;2023-04-03T06:56:15;4.30;;;3.90;;
1831;SDS011;1680;48.106;11.708;2023-04-03T06:58:44;4.50;;;3.80;;
1831;SDS011;1680;48.106;11.708;2023-04-03T07:01:13;4.47;;;4.07;;
1831;SDS011;1680;48.106;11.708;2023-04-03T07:03:44;4.40;;;4.00;;
1831;SDS011;1680;48.106;11.708;2023-04-03T07:06:13;4.20;;;3.90;;
1831;SDS011;1680;48.106;11.708;2023-04-03T07:08:41;4.40;;;4.00;;
1831;SDS011;1680;48.106;11.708;2023-04-03T07:11:09;4.47;;;4.17;;
1831;SDS011;1680;48.106;11.708;2023-04-03T07:13:38;4.03;;;3.67;;
1831;SDS011;1680;48.106;11.708;2023-04-03T07:16:07;5.40;;;4.23;;
1831;SDS011;1680;48.106;11.708;2023-04-03T07:18:35;4.10;;;3.70;;
1831;SDS011;1680;48.106;11.708;2023-04-03T07:21:03;4.33;;;3.93;;
1831;SDS011;1680;48.106;11.708;2023-04-03T07:23:32;3.97;;;3.67;;
1831;SDS011;1680;48.106;11.708;2023-04-03T07:25:59;4.03;;;3.63;;
1831;SDS011;1680;48.106;11.708;2023-04-03T07:28:27;3.97;;;3.57;;
1831;SDS011;1680;48.106;11.708;2023-04-03T07:30:59;4.57;;;3.80;;
1831;SDS011;1680;48.106;11.708;2023-04-03T07:33:28;6.20;;;3.93;;
1831;SDS011;1680;48.106;11.708;2023-04-03T07:35:56;5.83;;;4.20;;
1831;SDS011;1680;48.106;11.708;2023-04-03T07:38:23;5.73;;;4.40;;
1831;SDS011;1680;48.106;11.708;2023-04-03T07:40:51;4.70;;;4.17;;
1831;SDS011;1680;48.106;11.708;2023-04-03T07:43:19;4.80;;;3.90;;
1831;SDS011;1680;48.106;11.708;2023-04-03T07:45:47;4.73;;;4.33;;
1831;SDS011;1680;48.106;11.708;2023-04-03T07:48:16;4.73;;;4.33;;
1831;SDS011;1680;48.106;11.708;2023-04-03T07:50:45;5.60;;;4.73;;
1831;SDS011;1680;48.106;11.708;2023-04-03T07:53:12;4.77;;;4.30;;
1831;SDS011;1680;48.106;11.708;2023-04-03T07:55:40;4.97;;;4.50;;
1831;SDS011;1680;48.106;11.708;2023-04-03T07:58:09;4.97;;;4.30;;
1831;SDS011;1680;48.106;11.708;2023-04-03T08:00:37;5.60;;;4.30;;
1831;SDS011;1680;48.106;11.708;2023-04-03T08:03:05;4.60;;;4.20;;
1831;SDS011;1680;48.106;11.708;2023-04-03T08:05:35;5.50;;;4.90;;
1831;SDS011;1680;48.106;11.708;2023-04-03T08:08:05;5.00;;;4.50;;
1831;SDS011;1680;48.106;11.708;2023-04-03T08:10:33;5.10;;;4.60;;
1831;SDS011;1680;48.106;11.708;2023-04-03T08:13:01;5.60;;;4.97;;
1831;SDS011;1680;48.106;11.708;2023-04-03T08:15:29;5.23;;;4.73;;
1831;SDS011;1680;48.106;11.708;2023-04-03T08:17:57;5.45;;;5.05;;
1831;SDS011;1680;48.106;11.708;2023-04-03T08:20:24;5.47;;;4.93;;
1831;SDS011;1680;48.106;11.708;2023-04-03T08:22:51;7.07;;;4.47;;
1831;SDS011;1680;48.106;11.708;2023-04-03T08:25:20;5.97;;;4.73;;
1831;SDS011;1680;48.106;11.708;2023-04-03T08:27:48;4.57;;;4.10;;
1831;SDS011;1680;48.106;11.708;2023-04-03T08:30:15;5.13;;;4.63;;
1831;SDS011;1680;48.106;11.708;2023-04-03T08:32:42;5.13;;;4.70;;
1831;SDS011;1680;48.106;11.708;2023-04-03T08:35:10;5.30;;;4.53;;
1831;SDS011;1680;48.106;11.708;2023-04-03T08:37:38;5.03;;;4.63;;
1831;SDS011;1680;48.106;11.708;2023-04-03T08:40:07;5.00;;;4.60;;
1831;SDS011;1680;48.106;11.708;2023-04-03T08:42:43;7.40;;;5.20;;
1831;SDS011;1680;48.106;11.708;2023-04-03T08:45:19;5.80;;;4.40;;
1831;SDS011;1680;48.106;11.708;2023-04-03T08:47:55;5.60;;;5.00;;
1831;SDS011;1680;48.106;11.708;2023-04-03T08:50:28;5.10;;;4.60;;
1831;SDS011;1680;48.106;11.708;2023-04-03T08:52:59;4.90;;;4.43;;
1831;SDS011;1680;48.106;11.708;2023-04-03T08:55:33;4.77;;;4.37;;
1831;SDS011;1680;48.106;11.708;2023-04-03T08:58:06;5.03;;;4.63;;
1831;SDS011;1680;48.106;11.708;2023-04-03T09:00:40;5.80;;;5.23;;
1831;SDS011;1680;48.106;11.708;2023-04-03T09:03:11;5.90;;;5.27;;
1831;SDS011;1680;48.106;11.708;2023-04-03T09:05:42;6.13;;;4.77;;
1831;SDS011;1680;48.106;11.708;2023-04-03T09:08:23;5.90;;;4.60;;
1831;SDS011;1680;48.106;11.708;2023-04-03T09:10:58;4.73;;;4.33;;
1831;SDS011;1680;48.106;11.708;2023-04-03T09:13:36;5.10;;;4.60;;
1831;SDS011;1680;48.106;11.708;2023-04-03T09:16:15;6.30;;;4.67;;
1831;SDS011;1680;48.106;11.708;2023-04-03T09:18:48;4.80;;;4.40;;
1831;SDS011;1680;48.106;11.708;2023-04-03T09:21:24;5.20;;;4.70;;
1831;SDS011;1680;48.106;11.708;2023-04-03T09:23:58;5.23;;;4.73;;
1831;SDS011;1680;48.106;11.708;2023-04-03T09:26:30;5.20;;;4.63;;
1831;SDS011;1680;48.106;11.708;2023-04-03T09:29:06;4.53;;;4.13;;
1831;SDS011;1680;48.106;11.708;2023-04-03T09:31:36;4.60;;;4.20;;
1831;SDS011;1680;48.106;11.708;2023-04-03T09:34:06;5.00;;;4.47;;
1831;SDS011;1680;48.106;11.708;2023-04-03T09:36:40;4.70;;;4.27;;
1831;SDS011;1680;48.106;11.708;2023-04-03T09:39:11;4.80;;;4.40;;
1831;SDS011;1680;48.106;11.708;2023-04-03T09:41:41;5.27;;;4.60;;
1831;SDS011;1680;48.106;11.708;2023-04-03T09:44:24;4.87;;;4.40;;
1831;SDS011;1680;48.106;11.708;2023-04-03T09:46:52;5.10;;;4.60;;
1831;SDS011;1680;48.106;11.708;2023-04-03T09:49:19;6.60;;;4.70;;
1831;SDS011;1680;48.106;11.708;2023-04-03T09:51:47;5.30;;;4.80;;
1831;SDS011;1680;48.106;11.708;2023-04-03T09:54:24;6.80;;;4.87;;
1831;SDS011;1680;48.106;11.708;2023-04-03T09:56:57;6.97;;;4.43;;
1831;SDS011;1680;48.106;11.708;2023-04-03T09:59:32;5.30;;;4.00;;
1831;SDS011;1680;48.106;11.708;2023-04-03T10:02:00;5.13;;;4.67;;
1831;SDS011;1680;48.106;11.708;2023-04-03T10:04:39;5.47;;;4.97;;
1831;SDS011;1680;48.106;11.708;2023-04-03T10:07:25;5.10;;;4.70;;
1831;SDS011;1680;48.106;11.708;2023-04-03T10:09:55;6.13;;;4.30;;
1831;SDS011;1680;48.106;11.708;2023-04-03T10:12:23;5.37;;;4.87;;
1831;SDS011;1680;48.106;11.708;2023-04-03T10:14:56;5.87;;;5.00;;
1831;SDS011;1680;48.106;11.708;2023-04-03T10:17:26;4.80;;;4.40;;
1831;SDS011;1680;48.106;11.708;2023-04-03T10:20:05;5.47;;;4.47;;
1831;SDS011;1680;48.106;11.708;2023-04-03T10:22:46;6.57;;;4.60;;
1831;SDS011;1680;48.106;11.708;2023-04-03T10:25:20;5.00;;;4.50;;
1831;SDS011;1680;48.106;11.708;2023-04-03T10:27:55;5.37;;;4.87;;
1831;SDS011;1680;48.106;11.708;2023-04-03T10:30:34;4.87;;;4.40;;
1831;SDS011;1680;48.106;11.708;2023-04-03T10:33:13;4.37;;;4.07;;
1831;SDS011;1680;48.106;11.708;2023-04-03T10:35:53;4.90;;;4.50;;
1831;SDS011;1680;48.106;11.708;2023-04-03T10:38:31;4.83;;;4.40;;
1831;SDS011;1680;48.106;11.708;2023-04-03T10:41:09;4.73;;;4.43;;
1831;SDS011;1680;48.106;11.708;2023-04-03T10:43:44;4.87;;;4.40;;
1831;SDS011;1680;48.106;11.708;2023-04-03T10:46:22;4.40;;;4.10;;
1831;SDS011;1680;48.106;11.708;2023-04-03T10:49:04;5.00;;;4.47;;
1831;SDS011;1680;48.106;11.708;2023-04-03T10:51:41;5.20;;;4.13;;
1831;SDS011;1680;48.106;11.708;2023-04-03T10:54:12;4.33;;;3.93;;
1831;SDS011;1680;48.106;11.708;2023-04-03T10:56:44;4.83;;;4.40;;
1831;SDS011;1680;48.106;11.708;2023-04-03T10:59:16;4.90;;;4.40;;
1831;SDS011;1680;48.106;11.708;2023-04-03T11:01:49;5.80;;;4.67;;
1831;SDS011;1680;48.106;11.708;2023-04-03T11:04:20;4.97;;;4.57;;
1831;SDS011;1680;48.106;11.708;2023-04-03T11:06:50;4.80;;;4.20;;
1831;SDS011;1680;48.106;11.708;2023-04-03T11:09:25;4.93;;;4.37;;
1831;SDS011;1680;48.106;11.708;2023-04-03T11:11:56;4.97;;;4.47;;
1831;SDS011;1680;48.106;11.708;2023-04-03T11:14:27;4.13;;;3.83;;
1831;SDS011;1680;48.106;11.708;2023-04-03T11:17:04;3.93;;;3.63;;
1831;SDS011;1680;48.106;11.708;2023-04-03T11:19:39;4.18;;;3.70;;
1831;SDS011;1680;48.106;11.708;2023-04-03T11:22:14;4.32;;;3.92;;
1831;SDS011;1680;48.106;11.708;2023-04-03T11:24:53;4.70;;;4.03;;
1831;SDS011;1680;48.106;11.708;2023-04-03T11:27:25;5.20;;;4.07;;
1831;SDS011;1680;48.106;11.708;2023-04-03T11:29:58;4.47;;;3.60;;
1831;SDS011;1680;48.106;11.708;2023-04-03T11:32:29;3.83;;;3.50;;
1831;SDS011;1680;48.106;11.708;2023-04-03T11:35:08;4.47;;;4.07;;
1831;SDS011;1680;48.106;11.708;2023-04-03T11:37:38;4.80;;;3.67;;
1831;SDS011;1680;48.106;11.708;2023-04-03T11:40:21;4.20;;;3.80;;
1831;SDS011;1680;48.106;11.708;2023-04-03T11:42:52;4.07;;;3.30;;
1831;SDS011;1680;48.106;11.708;2023-04-03T11:45:25;5.03;;;3.67;;
1831;SDS011;1680;48.106;11.708;2023-04-03T11:48:01;6.40;;;3.10;;
1831;SDS011;1680;48.106;11.708;2023-04-03T11:50:30;4.13;;;3.35;;
1831;SDS011;1680;48.106;11.708;2023-04-03T11:55:57;2.90;;;2.60;;
1831;SDS011;1680;48.106;11.708;2023-04-03T11:58:27;3.50;;;3.13;;
1831;SDS011;1680;48.106;11.708;2023-04-03T12:00:57;3.42;;;3.00;;
1831;SDS011;1680;48.106;11.708;2023-04-03T12:06:50;4.17;;;3.80;;
1831;SDS011;1680;48.106;11.708;2023-04-03T12:09:25;3.53;;;3.23;;
1831;SDS011;1680;48.106;11.708;2023-04-03T12:12:22;3.23;;;2.80;;
1831;SDS011;1680;48.106;11.708;2023-04-03T12:15:17;3.30;;;3.00;;
1831;SDS011;1680;48.106;11.708;2023-04-03T12:17:47;2.80;;;2.60;;
1831;SDS011;1680;48.106;11.708;2023-04-03T12:23:27;2.73;;;2.53;;
1831;SDS011;1680;48.106;11.708;2023-04-03T12:26:00;4.30;;;2.70;;
1831;SDS011;1680;48.106;11.708;2023-04-03T12:28:47;4.03;;;2.60;;
1831;SDS011;1680;48.106;11.708;2023-04-03T12:31:17;2.50;;;2.30;;
1831;SDS011;1680;48.106;11.708;2023-04-03T12:33:56;2.77;;;2.40;;
1831;SDS011;1680;48.106;11.708;2023-04-03T12:36:34;2.90;;;2.43;;
1831;SDS011;1680;48.106;11.708;2023-04-03T12:39:20;2.77;;;2.33;;
1831;SDS011;1680;48.106;11.708;2023-04-03T12:42:03;2.40;;;2.20;;
1831;SDS011;1680;48.106;11.708;2023-04-03T12:44:45;2.80;;;2.40;;
1831;SDS011;1680;48.106;11.708;2023-04-03T12:47:24;2.57;;;2.23;;
1831;SDS011;1680;48.106;11.708;2023-04-03T12:49:54;4.37;;;2.60;;
1831;SDS011;1680;48.106;11.708;2023-04-03T12:52:28;3.50;;;2.30;;
1831;SDS011;1680;48.106;11.708;2023-04-03T12:55:01;2.77;;;2.57;;
1831;SDS011;1680;48.106;11.708;2023-04-03T12:57:30;4.00;;;2.70;;
1831;SDS011;1680;48.106;11.708;2023-04-03T12:59:58;3.23;;;2.93;;
1831;SDS011;1680;48.106;11.708;2023-04-03T13:02:26;3.70;;;2.57;;
1831;SDS011;1680;48.106;11.708;2023-04-03T13:04:55;3.00;;;2.30;;
1831;SDS011;1680;48.106;11.708;2023-04-03T13:07:25;2.87;;;2.60;;
1831;SDS011;1680;48.106;11.708;2023-04-03T13:10:03;2.30;;;2.10;;
1831;SDS011;1680;48.106;11.708;2023-04-03T13:12:45;2.37;;;2.03;;
1831;SDS011;1680;48.106;11.708;2023-04-03T13:15:15;2.90;;;2.30;;
1831;SDS011;1680;48.106;11.708;2023-04-03T13:17:45;2.87;;;2.30;;
1831;SDS011;1680;48.106;11.708;2023-04-03T13:20:18;2.47;;;2.27;;
1831;SDS011;1680;48.106;11.708;2023-04-03T13:22:48;2.40;;;2.10;;
1831;SDS011;1680;48.106;11.708;2023-04-03T13:25:22;2.80;;;2.17;;
1831;SDS011;1680;48.106;11.708;2023-04-03T13:27:51;1.80;;;1.70;;
1831;SDS011;1680;48.106;11.708;2023-04-03T13:30:20;2.30;;;2.10;;
1831;SDS011;1680;48.106;11.708;2023-04-03T13:32:51;6.13;;;4.33;;
1831;SDS011;1680;48.106;11.708;2023-04-03T13:35:26;3.10;;;2.50;;
1831;SDS011;1680;48.106;11.708;2023-04-03T13:38:00;4.83;;;2.43;;
1831;SDS011;1680;48.106;11.708;2023-04-03T13:40:30;2.87;;;2.33;;
1831;SDS011;1680;48.106;11.708;2023-04-03T13:43:04;2.30;;;2.10;;
1831;SDS011;1680;48.106;11.708;2023-04-03T13:45:33;2.60;;;1.80;;
1831;SDS011;1680;48.106;11.708;2023-04-03T13:48:08;3.37;;;2.17;;
1831;SDS011;1680;48.106;11.708;2023-04-03T13:50:53;3.33;;;2.00;;
1831;SDS011;1680;48.106;11.708;2023-04-03T13:53:26;2.40;;;2.20;;
1831;SDS011;1680;48.106;11.708;2023-04-03T13:55:57;2.20;;;2.00;;
1831;SDS011;1680;48.106;11.708;2023-04-03T13:58:27;2.67;;;2.10;;
1831;SDS011;1680;48.106;11.708;2023-04-03T14:00:55;3.00;;;2.50;;
1831;SDS011;1680;48.106;11.708;2023-04-03T14:03:28;3.07;;;2.10;;
1831;SDS011;1680;48.106;11.708;2023-04-03T14:05:58;1.93;;;1.83;;
1831;SDS011;1680;48.106;11.708;2023-04-03T14:08:26;3.77;;;2.30;;
1831;SDS011;1680;48.106;11.708;2023-04-03T14:10:54;4.07;;;2.60;;
1831;SDS011;1680;48.106;11.708;2023-04-03T14:13:23;2.07;;;1.80;;
1831;SDS011;1680;48.106;11.708;2023-04-03T14:15:50;4.90;;;2.80;;
1831;SDS011;1680;48.106;11.708;2023-04-03T14:18:18;2.23;;;1.90;;
1831;SDS011;1680;48.106;11.708;2023-04-03T14:20:47;2.83;;;1.90;;
1831;SDS011;1680;48.106;11.708;2023-04-03T14:23:15;3.60;;;2.30;;
1831;SDS011;1680;48.106;11.708;2023-04-03T14:25:42;2.70;;;2.10;;
1831;SDS011;1680;48.106;11.708;2023-04-03T14:28:14;14.83;;;10.43;;
1831;SDS011;1680;48.106;11.708;2023-04-03T14:30:44;15.70;;;12.53;;
1831;SDS011;1680;48.106;11.708;2023-04-03T14:33:12;3.13;;;2.80;;
1831;SDS011;1680;48.106;11.708;2023-04-03T14:35:41;2.67;;;1.70;;
1831;SDS011;1680;48.106;11.708;2023-04-03T14:38:13;2.60;;;2.33;;
1831;SDS011;1680;48.106;11.708;2023-04-03T14:40:49;2.40;;;2.20;;
1831;SDS011;1680;48.106;11.708;2023-04-03T14:43:17;2.23;;;1.77;;
1831;SDS011;1680;48.106;11.708;2023-04-03T14:45:46;3.23;;;1.70;;
1831;SDS011;1680;48.106;11.708;2023-04-03T14:48:16;2.00;;;1.90;;
1831;SDS011;1680;48.106;11.708;2023-04-03T14:50:45;2.50;;;1.90;;
1831;SDS011;1680;48.106;11.708;2023-04-03T14:53:13;1.90;;;1.70;;
1831;SDS011;1680;48.106;11.708;2023-04-03T14:55:42;2.00;;;1.60;;
1831;SDS011;1680;48.106;11.708;2023-04-03T14:58:12;2.37;;;1.90;;
1831;SDS011;1680;48.106;11.708;2023-04-03T15:00:41;1.70;;;1.60;;
1831;SDS011;1680;48.106;11.708;2023-04-03T15:03:14;2.83;;;2.17;;
1831;SDS011;1680;48.106;11.708;2023-04-03T15:05:43;1.87;;;1.77;;
1831;SDS011;1680;48.106;11.708;2023-04-03T15:08:15;1.63;;;1.53;;
1831;SDS011;1680;48.106;11.708;2023-04-03T15:10:45;3.17;;;2.17;;
1831;SDS011;1680;48.106;11.708;2023-04-03T15:13:13;2.80;;;1.80;;
1831;SDS011;1680;48.106;11.708;2023-04-03T15:15:41;1.73;;;1.63;;
1831;SDS011;1680;48.106;11.708;2023-04-03T15:18:15;1.87;;;1.40;;
1831;SDS011;1680;48.106;11.708;2023-04-03T15:20:45;2.23;;;1.87;;
1831;SDS011;1680;48.106;11.708;2023-04-03T15:23:13;3.53;;;2.00;;
1831;SDS011;1680;48.106;11.708;2023-04-03T15:25:42;2.67;;;1.83;;
1831;SDS011;1680;48.106;11.708;2023-04-03T15:28:11;2.33;;;1.70;;
1831;SDS011;1680;48.106;11.708;2023-04-03T15:30:45;1.70;;;1.60;;
1831;SDS011;1680;48.106;11.708;2023-04-03T15:33:12;1.43;;;1.33;;
1831;SDS011;1680;48.106;11.708;2023-04-03T15:35:41;2.30;;;2.03;;